Portada
METAR-TAF:

METAR-TAF

Aeroports :

Bleibler Ranch Aerodrome

Clinton, Colúmbia Britànica, Canadà

latitud: 51-15-59N, longitud: 121-41-05W, altitud: 1126 m

Observació

L'informe es va fer fa 25 minuts, a les 01:00 UTC
Vent 9 kt del Sud/Sud-Est amb ràfegues de 15 kt
Temperatura 3°C
Humitat 70%
Pressió 1006 hPa
Visibilitat: 14.5 km
Cel cobert a una alçada de 18000 ft

METAR: CYIN 250100Z AUTO 16009G15KT 9SM OVC180 03/M02 A2971 RMK SLP086

Hora: 17:25 (01:25 UTC)


TAF: manca

Observacions i pronòstics meteorològics de més de 4000 aeroports (METAR i TAF).

Les estacions disponibles són els punts grocs i vermells al mapa.

Posi el ratolí al punt desitjat per veure el nom de l'estació.

Feu clic per veure les observacions i els pronòstics meteorològics.

Per canviar el mapa: feu clic els botons verds amb una creu de color negre per apropar; al botó verd amb un guió per allunyar la imatge; o en les fletxes verdes per a mapes adjacents.


METAR-TAF: